Time;durP1;ratioP1;P1;durP2;ratioP2;P2;SDS_P1;SDS_P2;PMS_P1;PMS_P2;Temp;Humidity;BMP_temperature;BMP_pressure;BME280_temperature;BME280_humidity;BME280_pressure;Samples;Min_cycle;Max_cycle;Signal;HPM_P1;HPM_P2
2022/01/28 00:02:14;;;;;;;40.30;23.83;;;3.10;99.90;;;;;;6115309;29;20078;-82
2022/01/28 00:05:21;;;;;;;47.33;26.38;;;2.60;99.90;;;;;;6116209;28;20039;-83
2022/01/28 00:08:21;;;;;;;49.17;28.08;;;1.20;99.90;;;;;;6114874;29;20031;-82
2022/01/28 00:11:22;;;;;;;44.28;25.83;;;1.20;99.90;;;;;;6097868;28;20047;-82
2022/01/28 00:14:36;;;;;;;47.15;25.48;;;1.50;99.90;;;;;;6098224;29;20050;-83
2022/01/28 00:21:03;;;;;;;40.38;24.65;;;1.20;99.90;;;;;;6130523;29;20061;-85
2022/01/28 00:40:17;;;;;;;42.03;23.88;;;2.90;99.90;;;;;;6118835;29;20038;-82
2022/01/28 00:43:17;;;;;;;43.58;25.10;;;2.20;99.90;;;;;;6118487;29;20031;-81
2022/01/28 00:46:18;;;;;;;40.15;23.90;;;2.80;99.90;;;;;;6119462;29;20036;-81
2022/01/28 00:49:18;;;;;;;44.25;24.30;;;2.30;99.90;;;;;;6117948;29;20043;-81
2022/01/28 00:52:19;;;;;;;41.83;23.33;;;1.10;99.90;;;;;;6102606;29;20527;-85
2022/01/28 00:55:20;;;;;;;38.10;24.75;;;1.10;99.90;;;;;;6102319;29;20047;-81
2022/01/28 00:58:21;;;;;;;38.50;23.25;;;1.20;99.90;;;;;;6118209;29;20102;-84
2022/01/28 01:01:22;;;;;;;43.45;24.55;;;1.40;99.90;;;;;;6118044;28;20086;-82
2022/01/28 01:04:24;;;;;;;40.30;22.58;;;1.80;99.90;;;;;;6102213;29;20031;-83
2022/01/28 01:07:24;;;;;;;40.60;23.70;;;0.60;99.90;;;;;;6117794;29;20128;-81
2022/01/28 01:10:26;;;;;;;40.92;24.25;;;2.50;99.90;;;;;;6102095;29;20098;-82
2022/01/28 01:13:27;;;;;;;30.30;19.33;;;1.80;99.90;;;;;;6118258;29;20066;-82
2022/01/28 01:16:33;;;;;;;28.58;16.30;;;1.80;99.90;;;;;;6117300;28;20043;-86
2022/01/28 01:19:39;;;;;;;28.63;17.05;;;2.50;99.90;;;;;;6118743;29;20027;-82
2022/01/28 01:22:41;;;;;;;24.58;15.90;;;1.50;99.90;;;;;;6103265;29;20046;-81
2022/01/28 01:26:30;;;;;;;21.13;13.95;;;2.20;99.90;;;;;;6117579;29;20066;-83
2022/01/28 01:29:09;;;;;;;27.80;17.42;;;1.50;99.90;;;;;;6121280;29;20416;-81
2022/01/28 01:32:13;;;;;;;31.10;17.92;;;1.70;99.90;;;;;;6133852;29;20482;-83
2022/01/28 01:35:14;;;;;;;39.13;23.67;;;2.80;99.90;;;;;;6103159;28;20042;-82
2022/01/28 01:38:15;;;;;;;32.22;19.67;;;2.70;99.90;;;;;;6121467;29;20035;-82
2022/01/28 01:41:23;;;;;;;28.20;17.33;;;0.60;99.90;;;;;;6117193;28;20058;-83
2022/01/28 01:44:37;;;;;;;24.90;15.23;;;1.50;99.90;;;;;;6103594;29;20039;-81
2022/01/28 01:54:15;;;;;;;22.83;13.43;;;1.70;99.90;;;;;;6121990;29;20043;-82
2022/01/28 01:57:16;;;;;;;21.67;13.15;;;1.40;99.90;;;;;;6116584;29;20095;-84
2022/01/28 02:00:17;;;;;;;22.38;13.85;;;0.60;99.90;;;;;;6100781;29;20029;-82
2022/01/28 02:03:17;;;;;;;22.52;13.82;;;0.90;99.90;;;;;;6132564;29;20035;-81
2022/01/28 02:06:19;;;;;;;22.65;13.52;;;1.70;99.90;;;;;;6100950;29;20119;-85
2022/01/28 02:09:20;;;;;;;22.93;14.13;;;2.20;99.90;;;;;;6115924;29;20051;-82
2022/01/28 02:12:20;;;;;;;22.83;15.05;;;2.60;99.90;;;;;;6116554;29;20290;-83
2022/01/28 02:15:21;;;;;;;21.95;13.65;;;0.60;99.90;;;;;;6116710;28;20082;-82
2022/01/28 02:18:22;;;;;;;22.77;15.07;;;1.70;99.90;;;;;;6116225;29;20027;-82
2022/01/28 02:21:23;;;;;;;22.73;13.95;;;2.50;99.90;;;;;;6100776;29;20118;-81
2022/01/28 02:24:40;;;;;;;23.10;14.93;;;1.30;99.90;;;;;;6116206;29;20492;-81
2022/01/28 02:27:41;;;;;;;26.05;14.40;;;1.10;99.90;;;;;;6118408;29;20031;-82
2022/01/28 02:30:41;;;;;;;21.85;13.05;;;1.10;99.90;;;;;;6100377;29;20107;-85
2022/01/28 02:33:42;;;;;;;24.15;14.00;;;2.00;99.90;;;;;;6115988;29;20039;-86
2022/01/28 02:36:42;;;;;;;22.48;14.18;;;1.80;99.90;;;;;;6132240;29;20023;-81
2022/01/28 02:39:43;;;;;;;23.30;14.50;;;1.70;99.90;;;;;;6115673;29;20070;-83
2022/01/28 02:46:20;;;;;;;22.15;12.45;;;1.40;99.90;;;;;;6134289;28;20027;-85
2022/01/28 02:49:21;;;;;;;20.67;12.63;;;2.40;99.90;;;;;;6118249;29;20385;-83
2022/01/28 02:52:32;;;;;;;21.55;14.52;;;2.00;99.90;;;;;;6115570;28;20034;-82
2022/01/28 02:55:37;;;;;;;20.77;13.65;;;2.70;99.90;;;;;;6116598;29;20028;-82
2022/01/28 02:58:38;;;;;;;23.15;14.30;;;2.70;99.90;;;;;;6101217;29;20035;-82
2022/01/28 03:01:39;;;;;;;21.20;14.55;;;0.60;99.90;;;;;;6098591;29;20473;-81
2022/01/28 03:05:06;;;;;;;24.58;13.60;;;3.20;99.90;;;;;;6115209;29;20039;-81
2022/01/28 03:08:04;;;;;;;;;;;2.10;99.90;;;;;;6134592;29;20034;-83
2022/01/28 03:14:34;;;;;;;20.40;14.35;;;3.00;99.90;;;;;;6131748;29;20051;-82
2022/01/28 03:20:40;;;;;;;20.88;14.15;;;2.70;99.90;;;;;;6131438;29;20122;-82
2022/01/28 03:23:41;;;;;;;19.65;14.77;;;1.10;99.90;;;;;;6100402;28;21041;-84
2022/01/28 03:26:42;;;;;;;24.38;14.45;;;2.40;99.90;;;;;;6115427;29;20024;-84
2022/01/28 03:29:42;;;;;;;24.40;15.25;;;2.90;99.90;;;;;;6131026;29;20031;-84
2022/01/28 03:32:43;;;;;;;26.25;15.45;;;3.00;99.90;;;;;;6115268;29;20038;-81
2022/01/28 03:35:43;;;;;;;22.75;13.98;;;2.00;99.90;;;;;;6131217;29;20039;-85
2022/01/28 03:38:47;;;;;;;22.75;14.32;;;1.20;99.90;;;;;;6114950;29;20035;-81
2022/01/28 03:41:48;;;;;;;23.63;14.23;;;2.70;99.90;;;;;;6114739;28;20019;-82
2022/01/28 03:44:48;;;;;;;22.77;13.48;;;2.30;99.90;;;;;;6098985;29;20466;-82
2022/01/28 03:47:49;;;;;;;23.33;15.40;;;0.60;99.90;;;;;;6114331;29;20121;-84
2022/01/28 03:50:51;;;;;;;23.20;13.95;;;1.20;99.90;;;;;;6115278;29;20050;-82
2022/01/28 03:53:52;;;;;;;22.00;14.05;;;1.10;99.90;;;;;;6115060;29;20130;-83
2022/01/28 03:56:52;;;;;;;24.58;14.95;;;1.10;99.90;;;;;;6104762;29;20058;-82
2022/01/28 03:59:53;;;;;;;20.25;12.75;;;1.20;99.90;;;;;;6102414;29;20414;-85
2022/01/28 04:03:07;;;;;;;23.95;13.48;;;1.70;99.90;;;;;;6114338;29;20035;-85
2022/01/28 04:11:27;;;;;;;21.00;13.38;;;2.10;99.90;;;;;;6102182;29;20059;-84
2022/01/28 04:12:47;;;;;;;22.63;13.75;;;1.20;99.90;;;;;;6118657;29;20035;-81
2022/01/28 04:16:14;;;;;;;22.83;14.30;;;2.20;99.90;;;;;;6098085;28;20043;-82
2022/01/28 04:19:08;;;;;;;17.05;12.05;;;1.40;99.90;;;;;;6131944;28;20489;-83
2022/01/28 04:22:09;;;;;;;20.77;12.63;;;2.30;99.90;;;;;;6098555;29;20042;-86
2022/01/28 04:25:10;;;;;;;18.00;12.40;;;1.50;99.90;;;;;;6113588;29;20036;-82
2022/01/28 04:28:10;;;;;;;20.83;12.63;;;1.60;99.90;;;;;;6113683;29;20102;-82
2022/01/28 04:31:11;;;;;;;19.02;12.90;;;1.90;99.90;;;;;;6114123;29;20039;-82
2022/01/28 04:34:15;;;;;;;22.50;14.60;;;2.70;99.90;;;;;;6113308;29;20050;-81
2022/01/28 04:40:25;;;;;;;24.45;16.80;;;1.20;99.90;;;;;;6129543;29;20377;-82
2022/01/28 04:43:33;;;;;;;23.50;14.60;;;0.90;99.90;;;;;;6114901;29;20502;-85
2022/01/28 04:46:44;;;;;;;23.95;14.85;;;1.10;99.90;;;;;;6114289;28;20031;-83
2022/01/28 04:50:38;;;;;;;50.30;25.33;;;1.20;99.90;;;;;;6115889;29;20038;-80
2022/01/28 05:13:07;;;;;;;22.67;14.48;;;1.20;99.90;;;;;;6080168;29;20055;-81
2022/01/28 05:25:49;;;;;;;26.85;17.00;;;2.30;99.90;;;;;;6085902;29;20062;-84
2022/01/28 05:28:50;;;;;;;31.92;16.60;;;1.20;99.90;;;;;;6085425;29;20036;-82
2022/01/28 05:31:50;;;;;;;22.80;14.35;;;1.60;99.90;;;;;;6084104;29;20562;-85
2022/01/28 05:34:51;;;;;;;22.02;14.38;;;0.80;99.90;;;;;;6084436;29;20135;-81
2022/01/28 05:37:51;;;;;;;21.67;14.00;;;1.60;99.90;;;;;;6101507;29;20035;-81
2022/01/28 05:40:52;;;;;;;21.17;14.48;;;1.90;99.90;;;;;;6116976;29;20035;-83
2022/01/28 05:43:53;;;;;;;24.30;14.55;;;2.80;99.90;;;;;;6101710;29;20494;-86
2022/01/28 05:46:56;;;;;;;22.60;14.63;;;1.20;99.90;;;;;;6117469;29;20034;-82
2022/01/28 05:49:57;;;;;;;22.00;13.95;;;2.20;99.90;;;;;;6101747;29;20031;-81
2022/01/28 05:52:57;;;;;;;23.75;14.40;;;1.80;99.90;;;;;;6098515;28;20070;-83
2022/01/28 05:55:58;;;;;;;23.25;14.82;;;1.30;99.90;;;;;;6099835;29;20385;-82
2022/01/28 05:58:58;;;;;;;24.20;14.25;;;2.90;99.90;;;;;;6132170;29;20042;-83
2022/01/28 06:01:59;;;;;;;25.58;16.58;;;1.30;99.90;;;;;;6132425;28;20042;-81
2022/01/28 06:05:00;;;;;;;24.67;14.85;;;2.30;99.90;;;;;;6116794;29;20116;-82
2022/01/28 06:08:01;;;;;;;23.38;14.02;;;1.50;99.90;;;;;;6101020;29;20028;-82
2022/01/28 06:11:01;;;;;;;28.35;14.32;;;1.30;99.90;;;;;;6116033;29;20600;-81
2022/01/28 06:14:02;;;;;;;24.75;14.93;;;1.20;99.90;;;;;;6100904;29;20057;-84
2022/01/28 06:17:03;;;;;;;35.75;20.38;;;1.20;99.90;;;;;;6125398;29;20031;-82
2022/01/28 06:20:05;;;;;;;33.88;18.77;;;1.20;99.90;;;;;;6134695;29;20135;-82
2022/01/28 06:23:05;;;;;;;29.45;17.55;;;1.20;99.90;;;;;;6100577;29;20035;-82
2022/01/28 06:26:06;;;;;;;36.25;19.80;;;1.20;99.90;;;;;;6131846;29;20058;-82
2022/01/28 06:29:06;;;;;;;32.60;19.75;;;1.40;99.90;;;;;;6100033;29;20027;-82
2022/01/28 06:32:07;;;;;;;38.15;18.48;;;2.80;99.90;;;;;;6131432;29;20043;-79
2022/01/28 06:35:08;;;;;;;36.45;20.02;;;1.90;99.90;;;;;;6098896;28;20553;-80
2022/01/28 06:38:09;;;;;;;36.40;20.67;;;1.40;99.90;;;;;;6115426;29;20027;-79
2022/01/28 06:41:10;;;;;;;32.78;19.50;;;1.90;99.90;;;;;;6099468;29;20110;-80
2022/01/28 06:44:10;;;;;;;35.75;20.05;;;2.50;99.90;;;;;;6131159;29;20481;-79
2022/01/28 06:47:12;;;;;;;30.65;19.20;;;2.20;99.90;;;;;;6115035;29;20130;-77
2022/01/28 06:50:12;;;;;;;33.58;18.33;;;1.90;99.90;;;;;;6131352;29;20060;-80
2022/01/28 06:53:14;;;;;;;26.73;17.63;;;1.80;99.90;;;;;;6113984;29;20043;-78
2022/01/28 06:56:14;;;;;;;28.63;18.35;;;1.40;99.90;;;;;;6114674;29;20027;-80
2022/01/28 06:59:17;;;;;;;29.13;18.42;;;2.00;99.90;;;;;;6130034;29;20035;-81
2022/01/28 07:02:17;;;;;;;;;;;1.60;99.90;;;;;;6115654;29;20035;-84
2022/01/28 07:05:19;;;;;;;27.83;17.40;;;1.40;99.90;;;;;;6115061;29;19910;-80
2022/01/28 07:08:20;;;;;;;28.40;17.83;;;2.20;99.90;;;;;;6114816;29;20066;-82
2022/01/28 07:11:20;;;;;;;32.10;18.98;;;1.50;99.90;;;;;;6099016;29;20078;-80
2022/01/28 07:14:21;;;;;;;31.02;18.20;;;1.90;99.90;;;;;;6130070;29;20039;-83
2022/01/28 07:17:21;;;;;;;31.77;19.15;;;2.40;99.90;;;;;;6114463;29;20031;-81
2022/01/28 07:20:22;;;;;;;35.40;18.15;;;1.90;99.90;;;;;;6098502;29;20039;-81
2022/01/28 07:23:23;;;;;;;30.45;19.67;;;3.20;99.90;;;;;;6098097;29;20031;-82
2022/01/28 07:26:23;;;;;;;31.00;18.40;;;2.40;99.90;;;;;;6098867;29;20139;-81
2022/01/28 07:29:28;;;;;;;28.23;18.45;;;2.90;99.90;;;;;;6130191;29;20063;-82
2022/01/28 07:32:28;;;;;;;27.88;17.25;;;1.00;99.90;;;;;;6114680;29;20367;-82
2022/01/28 07:35:30;;;;;;;25.83;17.15;;;3.00;99.90;;;;;;6098254;28;20116;-81
2022/01/28 07:38:30;;;;;;;29.48;16.40;;;1.90;99.90;;;;;;6098309;29;20058;-82
2022/01/28 07:41:31;;;;;;;26.23;17.00;;;1.40;99.90;;;;;;6113716;28;20035;-85
2022/01/28 07:44:32;;;;;;;27.63;15.63;;;3.00;99.90;;;;;;6114392;29;20068;-82
2022/01/28 07:47:33;;;;;;;26.90;17.73;;;1.80;99.90;;;;;;6116874;29;20469;-83
2022/01/28 07:50:33;;;;;;;25.35;15.95;;;1.60;99.90;;;;;;6129951;29;20085;-82
2022/01/28 07:53:34;;;;;;;28.50;16.63;;;2.60;99.90;;;;;;6097929;29;20130;-82
2022/01/28 07:56:35;;;;;;;24.20;15.70;;;2.30;99.90;;;;;;6130012;29;20030;-85
2022/01/28 07:59:35;;;;;;;28.20;17.10;;;3.60;99.90;;;;;;6114133;29;20035;-82
2022/01/28 08:02:36;;;;;;;25.27;16.52;;;3.00;99.90;;;;;;6113818;28;20024;-82
2022/01/28 08:05:36;;;;;;;28.17;16.98;;;2.40;99.90;;;;;;6113452;29;20031;-83
2022/01/28 08:08:37;;;;;;;24.65;15.15;;;2.70;99.90;;;;;;6114069;28;20030;-83
2022/01/28 08:11:37;;;;;;;24.40;16.00;;;2.00;99.90;;;;;;6113730;29;20493;-82
2022/01/28 08:14:38;;;;;;;26.35;16.70;;;3.60;99.90;;;;;;6113253;29;20210;-82
2022/01/28 08:17:39;;;;;;;24.85;16.50;;;2.80;99.90;;;;;;6097655;29;20023;-85
2022/01/28 08:20:39;;;;;;;26.13;15.48;;;1.90;99.90;;;;;;6113394;29;20082;-85
2022/01/28 08:23:40;;;;;;;24.17;15.85;;;2.50;99.90;;;;;;6113341;29;20031;-83
2022/01/28 08:26:40;;;;;;;29.17;18.77;;;2.50;99.90;;;;;;6113143;29;20042;-82
2022/01/28 08:29:41;;;;;;;28.85;17.58;;;4.10;99.90;;;;;;6113300;29;20024;-81
2022/01/28 08:32:42;;;;;;;29.08;18.10;;;3.00;99.90;;;;;;6113429;29;20031;-82
2022/01/28 08:35:50;;;;;;;28.63;18.58;;;3.40;99.90;;;;;;6115337;29;20031;-81
2022/01/28 08:38:54;;;;;;;33.42;18.30;;;2.80;99.90;;;;;;6116460;29;20098;-81
2022/01/28 08:41:54;;;;;;;25.27;16.33;;;2.40;99.90;;;;;;6113524;29;20090;-81
2022/01/28 08:44:55;;;;;;;28.83;17.05;;;2.00;99.90;;;;;;6113271;29;20362;-82
2022/01/28 08:47:55;;;;;;;36.72;22.63;;;2.10;99.90;;;;;;6113103;28;20036;-82
2022/01/28 08:50:57;;;;;;;30.48;20.60;;;2.90;99.90;;;;;;6113232;29;20027;-83
2022/01/28 08:53:58;;;;;;;31.93;19.80;;;3.60;99.90;;;;;;6097250;29;20130;-83
2022/01/28 08:56:58;;;;;;;32.40;20.08;;;3.20;99.90;;;;;;6113292;28;20046;-82
2022/01/28 09:00:05;;;;;;;30.40;17.83;;;3.00;99.90;;;;;;6099892;29;20031;-82
2022/01/28 09:03:06;;;;;;;31.30;18.98;;;3.30;99.90;;;;;;6118233;29;20039;-82
2022/01/28 09:06:06;;;;;;;31.13;18.52;;;3.70;99.90;;;;;;6101787;29;20028;-85
2022/01/28 09:09:07;;;;;;;27.75;17.75;;;2.70;99.90;;;;;;6101152;29;20027;-81
2022/01/28 09:12:25;;;;;;;29.92;16.63;;;2.40;99.90;;;;;;6133837;29;20031;-82
2022/01/28 09:15:26;;;;;;;28.25;18.60;;;2.40;99.90;;;;;;6135556;29;20043;-83
2022/01/28 09:18:26;;;;;;;27.20;16.65;;;3.40;99.90;;;;;;6101686;29;20437;-82
2022/01/28 09:21:27;;;;;;;28.02;16.73;;;2.10;99.90;;;;;;6117404;28;20143;-82
2022/01/28 09:24:27;;;;;;;26.70;17.73;;;3.20;99.90;;;;;;6133659;29;20035;-84
2022/01/28 09:27:28;;;;;;;28.83;17.35;;;2.60;99.90;;;;;;6117336;29;20037;-80
2022/01/28 09:30:29;;;;;;;33.20;19.15;;;4.10;99.90;;;;;;6133068;29;20031;-82
2022/01/28 09:33:29;;;;;;;30.20;18.58;;;2.40;99.90;;;;;;6117005;29;20517;-81
2022/01/28 09:36:30;;;;;;;33.63;19.48;;;2.80;99.90;;;;;;6116981;29;20324;-82
2022/01/28 09:39:32;;;;;;;29.38;18.38;;;2.90;99.90;;;;;;6117087;29;20081;-82
2022/01/28 09:42:35;;;;;;;;;;;3.50;99.90;;;;;;6101748;28;20465;-82
2022/01/28 09:45:36;;;;;;;26.70;18.02;;;3.10;99.90;;;;;;6132670;29;20389;-84
2022/01/28 09:48:38;;;;;;;25.40;17.10;;;3.10;99.90;;;;;;6132820;29;20039;-82
2022/01/28 09:51:38;;;;;;;29.27;16.77;;;2.90;99.90;;;;;;6116483;29;20466;-84
2022/01/28 09:54:39;;;;;;;25.95;17.20;;;3.00;99.90;;;;;;6116548;29;20035;-84
2022/01/28 09:57:40;;;;;;;25.73;17.27;;;3.00;99.90;;;;;;6132626;29;20035;-82
2022/01/28 10:00:41;;;;;;;26.40;16.50;;;4.20;99.90;;;;;;6116561;28;20430;-83
2022/01/28 10:03:41;;;;;;;25.38;16.45;;;2.70;99.90;;;;;;6132543;29;20165;-83
2022/01/28 10:06:42;;;;;;;26.73;17.38;;;2.90;99.90;;;;;;6116209;29;20038;-82
2022/01/28 10:09:59;;;;;;;23.98;17.10;;;3.00;99.90;;;;;;6099343;28;20102;-84
2022/01/28 10:13:19;;;;;;;25.35;17.58;;;3.10;99.90;;;;;;6132301;29;20042;-84
2022/01/28 10:16:23;;;;;;;28.98;18.83;;;3.10;99.90;;;;;;6101314;28;20123;-81
2022/01/28 10:19:37;;;;;;;26.13;18.95;;;3.20;99.90;;;;;;6131899;29;20461;-82
2022/01/28 10:22:49;;;;;;;27.42;17.30;;;3.30;99.90;;;;;;6115870;29;20035;-83
2022/01/28 10:25:56;;;;;;;26.10;17.23;;;3.50;99.90;;;;;;6100228;29;20042;-86
2022/01/28 10:28:58;;;;;;;21.48;16.23;;;3.80;99.90;;;;;;6117233;29;20065;-84
2022/01/28 10:32:04;;;;;;;24.67;16.17;;;3.90;99.90;;;;;;6115705;29;20031;-84
2022/01/28 10:35:05;;;;;;;23.98;15.52;;;4.00;99.90;;;;;;6115799;29;20047;-82
2022/01/28 10:38:07;;;;;;;24.80;16.05;;;4.10;99.90;;;;;;6115733;29;20038;-82
2022/01/28 10:41:15;;;;;;;25.02;15.65;;;4.30;99.90;;;;;;6115803;29;20035;-82
2022/01/28 10:44:16;;;;;;;22.88;15.82;;;4.20;99.90;;;;;;6116863;29;20035;-84
2022/01/28 10:47:27;;;;;;;21.55;15.43;;;4.30;99.90;;;;;;6131576;29;20082;-85
2022/01/28 10:50:36;;;;;;;19.70;15.20;;;5.00;99.90;;;;;;6117331;29;20105;-82
2022/01/28 10:53:37;;;;;;;18.63;12.48;;;4.30;99.90;;;;;;6132179;28;20478;-84
2022/01/28 10:56:53;;;;;;;18.88;14.13;;;4.20;99.90;;;;;;6117287;29;20031;-84
2022/01/28 10:59:54;;;;;;;19.40;13.32;;;4.20;99.90;;;;;;6100143;29;20031;-82
2022/01/28 11:02:55;;;;;;;21.75;14.60;;;5.00;99.90;;;;;;6115244;29;20031;-83
2022/01/28 11:05:59;;;;;;;21.60;15.40;;;4.90;99.90;;;;;;6098993;28;20036;-83
2022/01/28 11:08:59;;;;;;;22.45;13.70;;;4.30;99.90;;;;;;6130569;29;20065;-82
2022/01/28 11:12:00;;;;;;;21.15;13.95;;;4.10;99.90;;;;;;6098940;29;20091;-83
2022/01/28 11:15:01;;;;;;;21.98;15.82;;;4.10;99.90;;;;;;6099379;29;20049;-83
2022/01/28 11:18:03;;;;;;;23.83;16.90;;;4.60;99.90;;;;;;6098698;29;20059;-83
2022/01/28 11:21:06;;;;;;;20.15;14.90;;;4.10;99.90;;;;;;6114718;28;20027;-82
2022/01/28 11:24:28;;;;;;;24.00;17.10;;;4.10;99.90;;;;;;6129954;29;20046;-84
2022/01/28 11:27:34;;;;;;;20.70;15.45;;;4.20;99.90;;;;;;6130365;29;20035;-82
2022/01/28 11:30:35;;;;;;;23.95;16.30;;;4.70;99.90;;;;;;6098524;28;20150;-82
2022/01/28 11:34:02;;;;;;;20.05;15.20;;;4.40;99.90;;;;;;6114686;29;20035;-84
2022/01/28 11:37:02;;;;;;;21.50;14.77;;;4.00;99.90;;;;;;6127255;28;20485;-83
2022/01/28 11:40:10;;;;;;;22.83;15.02;;;4.50;99.90;;;;;;6146044;29;20035;-80
2022/01/28 11:43:28;;;;;;;24.90;16.02;;;4.40;99.90;;;;;;6130135;29;20042;-82
2022/01/28 11:46:39;;;;;;;24.02;16.20;;;4.40;99.90;;;;;;6114425;29;20041;-79
2022/01/28 11:50:00;;;;;;;19.65;14.68;;;4.40;99.90;;;;;;6116144;28;20027;-80
2022/01/28 11:53:01;;;;;;;21.33;14.35;;;4.20;99.90;;;;;;6129678;29;20039;-80
2022/01/28 11:56:02;;;;;;;21.70;15.60;;;3.90;99.90;;;;;;6113496;29;20031;-80
2022/01/28 11:59:10;;;;;;;23.45;15.68;;;3.90;99.90;;;;;;6129573;29;20046;-80
2022/01/28 12:02:12;;;;;;;25.67;17.30;;;4.40;99.90;;;;;;6115092;28;20027;-80
2022/01/28 12:05:29;;;;;;;21.52;15.68;;;4.50;99.90;;;;;;6097805;29;20177;-81
2022/01/28 12:08:30;;;;;;;23.25;15.38;;;4.60;99.90;;;;;;6113247;28;20039;-80
2022/01/28 12:11:44;;;;;;;22.63;16.25;;;4.70;99.90;;;;;;6112140;29;20055;-80
2022/01/28 12:15:06;;;;;;;21.52;15.90;;;4.90;99.90;;;;;;6112731;28;20078;-82
2022/01/28 12:18:10;;;;;;;21.37;16.23;;;4.70;99.90;;;;;;6113735;29;20525;-81
2022/01/28 12:21:18;;;;;;;21.40;16.00;;;4.70;99.90;;;;;;6113803;28;20035;-80
2022/01/28 12:24:18;;;;;;;23.83;16.38;;;4.40;99.90;;;;;;6129684;29;20039;-79
2022/01/28 12:27:21;;;;;;;25.33;15.80;;;4.60;99.90;;;;;;6146480;29;20027;-81
2022/01/28 12:30:37;;;;;;;27.58;19.35;;;5.10;99.90;;;;;;6113643;29;20054;-80
2022/01/28 12:33:44;;;;;;;19.08;14.88;;;5.40;99.90;;;;;;6128768;29;20098;-81
2022/01/28 12:36:46;;;;;;;20.08;15.18;;;5.40;99.90;;;;;;6129232;29;20083;-82
2022/01/28 12:39:59;;;;;;;22.25;15.52;;;5.80;99.90;;;;;;6129009;28;20035;-80
2022/01/28 12:42:59;;;;;;;;;;;5.50;99.90;;;;;;6115631;29;20766;-81
2022/01/28 12:46:09;;;;;;;17.05;12.80;;;5.80;99.90;;;;;;6128719;29;19918;-79
2022/01/28 12:49:10;;;;;;;18.95;13.77;;;6.10;99.90;;;;;;6146022;29;20102;-81
2022/01/28 12:52:11;;;;;;;22.10;15.85;;;6.40;99.90;;;;;;6112797;28;20031;-80
2022/01/28 12:55:12;;;;;;;21.85;15.40;;;6.50;99.90;;;;;;6126884;28;20114;-80
2022/01/28 12:58:14;;;;;;;23.35;16.05;;;7.70;99.90;;;;;;6128076;29;20027;-80
2022/01/28 13:01:16;;;;;;;59.80;29.57;;;6.00;99.90;;;;;;6128979;29;20462;-80
2022/01/28 13:04:21;;;;;;;18.08;13.68;;;5.70;99.90;;;;;;6128310;29;20027;-80
2022/01/28 13:10:33;;;;;;;19.23;13.57;;;5.60;99.90;;;;;;6120765;29;20130;-79
2022/01/28 13:13:34;;;;;;;19.27;13.65;;;5.60;99.90;;;;;;6105191;29;20040;-82
2022/01/28 13:16:40;;;;;;;17.10;13.47;;;5.70;99.90;;;;;;6105432;29;20048;-79
2022/01/28 13:19:40;;;;;;;20.77;11.77;;;6.90;99.90;;;;;;6104719;29;20110;-80
2022/01/28 13:22:41;;;;;;;16.23;12.20;;;5.70;99.90;;;;;;6104776;29;20028;-79
2022/01/28 13:25:42;;;;;;;18.70;12.82;;;5.80;99.90;;;;;;6120443;29;20435;-80
2022/01/28 13:28:44;;;;;;;15.68;11.80;;;5.80;99.90;;;;;;6120762;29;20059;-79
2022/01/28 13:31:52;;;;;;;14.98;12.05;;;5.90;99.90;;;;;;6121725;29;20367;-79
2022/01/28 13:34:56;;;;;;;15.88;11.77;;;5.90;99.90;;;;;;6120809;29;20561;-80
2022/01/28 13:38:00;;;;;;;14.10;11.02;;;5.80;99.90;;;;;;6120071;29;20032;-80
2022/01/28 13:41:28;;;;;;;16.38;10.95;;;5.80;99.90;;;;;;6120588;29;20031;-81
2022/01/28 13:44:30;;;;;;;15.95;11.45;;;6.30;99.90;;;;;;6120447;29;20083;-81
2022/01/28 13:47:51;;;;;;;18.50;11.63;;;6.20;99.90;;;;;;6124879;29;20035;-78
2022/01/28 13:50:52;;;;;;;13.48;10.70;;;6.40;99.90;;;;;;6108854;29;20167;-79
2022/01/28 13:57:04;;;;;;;14.98;10.32;;;6.60;99.90;;;;;;6124828;29;20067;-84
2022/01/28 14:00:06;;;;;;;15.98;11.48;;;6.50;99.90;;;;;;6124634;29;20467;-80
2022/01/28 14:03:16;;;;;;;13.07;10.15;;;6.40;99.90;;;;;;6108141;29;20039;-83
2022/01/28 14:06:23;;;;;;;12.52;9.65;;;6.30;99.90;;;;;;6124859;29;20032;-80
2022/01/28 14:09:25;;;;;;;15.25;10.55;;;6.20;99.90;;;;;;6112031;29;20051;-81
2022/01/28 14:12:36;;;;;;;14.90;10.13;;;6.10;99.90;;;;;;6149571;28;20027;-80
2022/01/28 14:15:49;;;;;;;15.32;10.73;;;6.00;99.90;;;;;;6117405;29;20397;-80
2022/01/28 14:18:50;;;;;;;13.90;10.05;;;6.00;99.90;;;;;;6133870;29;20035;-80
2022/01/28 14:21:50;;;;;;;15.05;11.75;;;5.90;99.90;;;;;;6115399;28;20035;-82
2022/01/28 14:24:52;;;;;;;16.25;11.90;;;5.90;99.90;;;;;;6116409;29;20034;-79
2022/01/28 14:28:11;;;;;;;18.08;11.43;;;5.90;99.90;;;;;;6100040;29;20031;-81
2022/01/28 14:31:12;;;;;;;14.55;10.50;;;6.00;99.90;;;;;;6134681;29;20105;-79
2022/01/28 14:34:12;;;;;;;13.32;10.27;;;5.90;99.90;;;;;;6131121;29;20473;-81
2022/01/28 14:37:13;;;;;;;13.13;9.63;;;5.90;99.90;;;;;;6131547;29;20695;-81
2022/01/28 14:40:14;;;;;;;12.73;10.45;;;5.90;99.90;;;;;;6115153;28;20033;-82
2022/01/28 14:43:15;;;;;;;15.77;9.70;;;6.00;99.90;;;;;;6115437;29;20086;-82
2022/01/28 14:46:15;;;;;;;12.00;9.20;;;5.80;99.90;;;;;;6131339;28;20379;-79
2022/01/28 14:49:16;;;;;;;12.95;9.68;;;5.90;99.90;;;;;;6115332;29;20062;-81
2022/01/28 14:52:20;;;;;;;12.98;9.63;;;5.70;99.90;;;;;;6130881;29;20074;-80
2022/01/28 14:55:20;;;;;;;15.43;10.68;;;5.70;99.90;;;;;;6130365;29;20051;-81
2022/01/28 14:58:21;;;;;;;15.13;9.35;;;5.80;99.90;;;;;;6099280;29;20034;-81
2022/01/28 15:01:21;;;;;;;15.45;9.20;;;5.60;99.90;;;;;;6129511;28;20047;-80
2022/01/28 15:04:22;;;;;;;13.80;9.90;;;5.70;99.90;;;;;;6130652;29;20039;-80
2022/01/28 15:07:26;;;;;;;14.02;10.02;;;5.60;99.90;;;;;;6130488;29;20106;-80
2022/01/28 15:10:27;;;;;;;15.18;10.02;;;5.60;99.90;;;;;;6115479;29;20055;-83
2022/01/28 15:13:28;;;;;;;14.00;10.25;;;5.60;99.90;;;;;;6114344;28;20134;-79
2022/01/28 15:16:29;;;;;;;14.43;10.35;;;5.50;99.90;;;;;;6130625;28;20432;-79
2022/01/28 15:19:29;;;;;;;13.07;9.25;;;5.90;99.90;;;;;;6130702;28;20031;-79
2022/01/28 15:22:30;;;;;;;15.13;10.50;;;6.20;99.90;;;;;;6130384;29;20523;-80
2022/01/28 15:25:33;;;;;;;13.35;10.90;;;5.40;99.90;;;;;;6112742;29;20031;-79
2022/01/28 15:28:48;;;;;;;11.48;9.25;;;5.40;99.90;;;;;;6114839;29;20393;-78
2022/01/28 15:38:14;;;;;;;15.82;10.75;;;5.40;99.90;;;;;;6131001;29;20042;-80
2022/01/28 15:41:14;;;;;;;14.80;10.43;;;5.40;99.90;;;;;;6130369;29;20028;-80
2022/01/28 15:44:15;;;;;;;14.60;10.52;;;5.30;99.90;;;;;;6114092;29;20035;-81
2022/01/28 15:47:16;;;;;;;16.52;10.55;;;5.20;99.90;;;;;;6113862;29;20058;-79
2022/01/28 15:50:16;;;;;;;16.73;10.40;;;5.30;99.90;;;;;;6129778;29;20038;-82
2022/01/28 15:53:17;;;;;;;16.75;10.40;;;5.10;99.90;;;;;;6128986;28;20505;-80
2022/01/28 15:56:18;;;;;;;16.77;9.73;;;5.30;99.90;;;;;;6113791;29;20462;-81
2022/01/28 15:59:19;;;;;;;22.52;10.75;;;5.50;99.90;;;;;;6128604;29;20031;-83
2022/01/28 16:02:19;;;;;;;15.93;11.23;;;5.00;99.90;;;;;;6113343;29;20446;-80
2022/01/28 16:05:20;;;;;;;14.02;10.35;;;6.00;99.90;;;;;;6129396;29;20039;-80
2022/01/28 16:08:21;;;;;;;13.98;10.15;;;4.80;99.90;;;;;;6128961;29;20633;-80
2022/01/28 16:11:29;;;;;;;13.40;10.40;;;4.60;99.90;;;;;;6113207;29;20087;-79
2022/01/28 16:14:32;;;;;;;12.93;10.07;;;4.50;99.90;;;;;;6115382;29;20035;-79
2022/01/28 16:17:39;;;;;;;12.70;9.23;;;4.40;99.90;;;;;;6113781;29;20034;-79
2022/01/28 16:20:40;;;;;;;12.95;9.77;;;4.30;99.90;;;;;;6129997;29;20118;-78
2022/01/28 16:23:41;;;;;;;13.40;9.63;;;4.60;99.90;;;;;;6112706;29;20038;-79
2022/01/28 16:26:41;;;;;;;12.82;8.73;;;4.10;99.90;;;;;;6112938;29;20390;-80
2022/01/28 16:29:42;;;;;;;16.75;12.63;;;4.70;99.90;;;;;;6113318;29;20031;-81
2022/01/28 16:32:43;;;;;;;18.60;13.70;;;4.00;99.90;;;;;;6097661;28;20081;-81
2022/01/28 16:35:43;;;;;;;17.10;12.38;;;4.10;99.90;;;;;;6113163;29;20049;-82
2022/01/28 16:38:44;;;;;;;24.25;14.13;;;3.80;99.90;;;;;;6112615;28;20039;-79
2022/01/28 16:41:46;;;;;;;20.17;13.55;;;4.40;99.90;;;;;;6113436;29;20039;-83
2022/01/28 16:44:50;;;;;;;20.13;13.77;;;4.70;99.90;;;;;;6097454;29;20493;-80
2022/01/28 16:47:51;;;;;;;21.15;13.75;;;4.00;99.90;;;;;;6129424;28;20171;-81
2022/01/28 16:50:52;;;;;;;17.88;12.90;;;3.80;99.90;;;;;;6097219;29;20736;-78
2022/01/28 16:53:52;;;;;;;18.77;11.07;;;4.10;99.90;;;;;;6112395;29;20094;-79
2022/01/28 16:56:53;;;;;;;15.40;11.88;;;4.20;99.90;;;;;;6127920;29;20547;-78
2022/01/28 16:59:54;;;;;;;18.70;12.30;;;3.50;99.90;;;;;;6112303;28;20082;-78
2022/01/28 17:02:54;;;;;;;16.73;11.05;;;3.70;99.90;;;;;;6097061;29;20027;-78
2022/01/28 17:05:56;;;;;;;21.58;11.38;;;3.90;99.90;;;;;;6128465;29;20058;-76
2022/01/28 17:08:58;;;;;;;17.23;12.23;;;3.50;99.90;;;;;;6128551;29;20035;-81